Hiyodori — JD2366 — position and weather

sailwx.info

Track history (hours):
 
Tides and Currents Weather Stations Pressure Air Temp Water Temp Dewpoint Dewpoint Depression Visibility Wind Speed Wind Dir Waves Ship Positions

Hiyodori

Last reported at 2017-Jun-27 11:30 UTC. Time now 2017-Jun-28 02:03 UTC.
Position N 35°08' E 139°44'.

Length 88 m; draft 3.6 m.

Type: Cargo ship. MMSI: 431000132.

Date/timePositionNaut miles runAvg speedWind from/ knotsBaromVisibWave heightAir tempDewpointWater temp
2017-Jun-27 11:30N 35°08' E 139°44'510.6
2017-Jun-27 11:00N 35°13' E 139°46'611.4
2017-Jun-27 10:31N 35°18' E 139°44'611.2
2017-Jun-27 10:00N 35°24' E 139°43'611.4
2017-Jun-27 09:30N 35°28' E 139°47'510.5
2017-Jun-27 09:00N 35°33' E 139°50'4 8.9
2017-Jun-27 08:30N 35°36' E 139°46'0 0.2
2017-Jun-27 07:49N 35°36' E 139°46'0 0.0
2017-Jun-27 07:28N 35°36' E 139°46'0 0.0
2017-Jun-27 06:58N 35°36' E 139°46'0 0.0
2017-Jun-27 06:28N 35°36' E 139°46'0 0.0
2017-Jun-27 06:00N 35°36' E 139°46'4 8.2
2017-Jun-27 05:30N 35°34' E 139°50'510.3
2017-Jun-27 05:00N 35°29' E 139°51'611.7
2017-Jun-27 04:30N 35°24' E 139°46'612.3
2017-Jun-27 04:00N 35°19' E 139°44'611.4
2017-Jun-27 03:30N 35°13' E 139°47'  
2017-Jun-24 13:53N 35°08' E 139°42'612.6
2017-Jun-24 13:25N 35°13' E 139°46'512.6
2017-Jun-24 13:00N 35°17' E 139°45'611.9
2017-Jun-24 12:30N 35°23' E 139°42'612.6
2017-Jun-24 12:00N 35°28' E 139°48'611.4
2017-Jun-24 11:30N 35°33' E 139°50'4 7.9
2017-Jun-24 11:00N 35°36' E 139°47'0 0.0
2017-Jun-24 10:28N 35°36' E 139°47'0 0.0
2017-Jun-24 09:58N 35°36' E 139°47'1 2.2
2017-Jun-24 09:31N 35°35' E 139°48'5 9.7
2017-Jun-24 09:00N 35°31' E 139°51'612.3
2017-Jun-24 08:31N 35°27' E 139°46'611.3
2017-Jun-24 08:01N 35°24' E 139°40'0 0.9
2017-Jun-24 07:30N 35°24' E 139°41'0 0.0
2017-Jun-24 07:00N 35°24' E 139°41'0 0.0
2017-Jun-24 06:30N 35°24' E 139°41'0 0.0
2017-Jun-24 06:00N 35°24' E 139°41'0 0.0
2017-Jun-24 05:30N 35°24' E 139°41'0 0.0
2017-Jun-24 05:00N 35°24' E 139°41'2 3.6
2017-Jun-24 04:30N 35°23' E 139°43'1 2.5
2017-Jun-24 04:00N 35°23' E 139°44'0 0.0
2017-Jun-24 03:30N 35°23' E 139°44'0 0.5
2017-Jun-24 03:01N 35°22' E 139°44'611.3
2017-Jun-24 02:30N 35°17' E 139°46'610.8
2017-Jun-24 01:57N 35°11' E 139°46'4 0.1
2017-Jun-22 09:29N 35°07' E 139°43'611.7
2017-Jun-22 09:00N 35°13' E 139°46'611.4
2017-Jun-22 08:30N 35°18' E 139°44'611.3
2017-Jun-22 08:00N 35°23' E 139°42'612.1
2017-Jun-22 07:30N 35°28' E 139°47'611.5
2017-Jun-22 07:00N 35°33' E 139°50'4 8.7
2017-Jun-22 06:30N 35°36' E 139°46'0 0.0
2017-Jun-22 05:55N 35°36' E 139°46'0 0.0
2017-Jun-22 05:28N 35°36' E 139°46'0 0.0
2017-Jun-22 04:58N 35°36' E 139°46'0 0.0
2017-Jun-22 04:16N 35°36' E 139°46'0 0.0
2017-Jun-22 03:58N 35°36' E 139°46'0 0.0
2017-Jun-22 03:28N 35°36' E 139°46'0 0.0
2017-Jun-22 02:55N 35°36' E 139°46'0 0.0
2017-Jun-22 02:20N 35°36' E 139°46'0 0.9
2017-Jun-22 01:56N 35°36' E 139°46'0 0.0
2017-Jun-22 01:29N 35°36' E 139°46'0 0.0
2017-Jun-22 00:59N 35°36' E 139°46'0 0.0
2017-Jun-22 00:29N 35°36' E 139°46'0 0.0
2017-Jun-21 23:56N 35°36' E 139°46'0 0.1
2017-Jun-21 23:30N 35°36' E 139°46'4 8.2
2017-Jun-21 23:00N 35°34' E 139°50'3 2.5
2017-Jun-21 21:58N 35°33' E 139°53'0 0.0
2017-Jun-21 21:28N 35°33' E 139°53'0 0.0
2017-Jun-21 20:55N 35°33' E 139°53'0 0.0
2017-Jun-21 20:25N 35°33' E 139°53'0 0.0
2017-Jun-21 19:58N 35°33' E 139°53'0 0.1
2017-Jun-21 19:25N 35°33' E 139°53'0 0.1
2017-Jun-21 18:13N 35°33' E 139°53'0 0.0
2017-Jun-21 17:59N 35°33' E 139°53'0 0.0
2017-Jun-21 17:30N 35°33' E 139°53'0 0.0
2017-Jun-21 17:00N 35°33' E 139°53'0 0.0
2017-Jun-21 16:30N 35°33' E 139°53'0 0.0
2017-Jun-21 16:01N 35°33' E 139°53'0 0.0
2017-Jun-21 15:30N 35°33' E 139°53'0 0.0
2017-Jun-21 14:57N 35°33' E 139°53'0 0.0
2017-Jun-21 14:31N 35°33' E 139°53'0 0.0
2017-Jun-21 13:31N 35°33' E 139°53'0 0.0
2017-Jun-21 13:00N 35°33' E 139°53'0 0.0
2017-Jun-21 12:29N 35°33' E 139°53'0 0.0
2017-Jun-21 12:00N 35°33' E 139°53'0 0.0
2017-Jun-21 11:26N 35°33' E 139°53'0 0.0
2017-Jun-21 10:59N 35°33' E 139°53'0 0.0
2017-Jun-21 10:30N 35°33' E 139°53'0 0.0
2017-Jun-21 09:58N 35°33' E 139°53'0 0.0
2017-Jun-21 09:30N 35°33' E 139°53'0 0.0
2017-Jun-21 09:01N 35°33' E 139°53'0 0.1
2017-Jun-21 08:30N 35°33' E 139°53'0 0.0
2017-Jun-21 08:00N 35°33' E 139°53'0 0.0
2017-Jun-21 07:30N 35°33' E 139°53'0 0.1
2017-Jun-21 07:00N 35°33' E 139°53'5 9.5
2017-Jun-21 06:30N 35°29' E 139°51'612.8
2017-Jun-21 06:00N 35°24' E 139°46'612.4
2017-Jun-21 05:30N 35°18' E 139°45'1112.4
2017-Jun-21 04:36N 35°07' E 139°46'112.7
2017-Jun-21 04:29N 35°06' E 139°44'2 0.1
2017-Jun-20 10:55N 35°07' E 139°42'712.0
2017-Jun-20 10:19N 35°13' E 139°46'311.4
2017-Jun-20 10:01N 35°16' E 139°45'611.5
2017-Jun-20 09:31N 35°21' E 139°42'510.9
2017-Jun-20 09:01N 35°26' E 139°45'611.2
2017-Jun-20 08:31N 35°31' E 139°49'5 9.1
2017-Jun-20 08:01N 35°35' E 139°48'2 3.4
2017-Jun-20 07:27N 35°36' E 139°46'0 0.0
2017-Jun-20 07:00N 35°36' E 139°46'0 0.0
2017-Jun-20 05:57N 35°36' E 139°46'2 5.4
2017-Jun-20 05:30N 35°35' E 139°48'510.1
2017-Jun-20 05:00N 35°31' E 139°52'611.7
2017-Jun-20 04:30N 35°26' E 139°48'612.0
2017-Jun-20 04:00N 35°21' E 139°45'611.2
2017-Jun-20 03:31N 35°15' E 139°47'  
Track history (hours):
 
Tides and Currents Weather Stations Pressure Air Temp Water Temp Dewpoint Dewpoint Depression Visibility Wind Speed Wind Dir Waves Ship Positions

Hiyodori

Last reported at 2017-Jun-27 11:30 UTC. Time now 2017-Jun-28 02:03 UTC.
Position N 35°08' E 139°44'.

Length 88 m; draft 3.6 m.

Type: Cargo ship. MMSI: 431000132.

Date/timePositionNaut miles runAvg speedWind from/ knotsBaromVisibWave heightAir tempDewpointWater temp
2017-Jun-27 11:30N 35°08' E 139°44'510.6
2017-Jun-27 11:00N 35°13' E 139°46'611.4
2017-Jun-27 10:31N 35°18' E 139°44'611.2
2017-Jun-27 10:00N 35°24' E 139°43'611.4
2017-Jun-27 09:30N 35°28' E 139°47'510.5
2017-Jun-27 09:00N 35°33' E 139°50'4 8.9
2017-Jun-27 08:30N 35°36' E 139°46'0 0.2
2017-Jun-27 07:49N 35°36' E 139°46'0 0.0
2017-Jun-27 07:28N 35°36' E 139°46'0 0.0
2017-Jun-27 06:58N 35°36' E 139°46'0 0.0
2017-Jun-27 06:28N 35°36' E 139°46'0 0.0
2017-Jun-27 06:00N 35°36' E 139°46'4 8.2
2017-Jun-27 05:30N 35°34' E 139°50'510.3
2017-Jun-27 05:00N 35°29' E 139°51'611.7
2017-Jun-27 04:30N 35°24' E 139°46'612.3
2017-Jun-27 04:00N 35°19' E 139°44'611.4
2017-Jun-27 03:30N 35°13' E 139°47'  
2017-Jun-24 13:53N 35°08' E 139°42'612.6
2017-Jun-24 13:25N 35°13' E 139°46'512.6
2017-Jun-24 13:00N 35°17' E 139°45'611.9
2017-Jun-24 12:30N 35°23' E 139°42'612.6
2017-Jun-24 12:00N 35°28' E 139°48'611.4
2017-Jun-24 11:30N 35°33' E 139°50'4 7.9
2017-Jun-24 11:00N 35°36' E 139°47'0 0.0
2017-Jun-24 10:28N 35°36' E 139°47'0 0.0
2017-Jun-24 09:58N 35°36' E 139°47'1 2.2
2017-Jun-24 09:31N 35°35' E 139°48'5 9.7
2017-Jun-24 09:00N 35°31' E 139°51'612.3
2017-Jun-24 08:31N 35°27' E 139°46'611.3
2017-Jun-24 08:01N 35°24' E 139°40'0 0.9
2017-Jun-24 07:30N 35°24' E 139°41'0 0.0
2017-Jun-24 07:00N 35°24' E 139°41'0 0.0
2017-Jun-24 06:30N 35°24' E 139°41'0 0.0
2017-Jun-24 06:00N 35°24' E 139°41'0 0.0
2017-Jun-24 05:30N 35°24' E 139°41'0 0.0
2017-Jun-24 05:00N 35°24' E 139°41'2 3.6
2017-Jun-24 04:30N 35°23' E 139°43'1 2.5
2017-Jun-24 04:00N 35°23' E 139°44'0 0.0
2017-Jun-24 03:30N 35°23' E 139°44'0 0.5
2017-Jun-24 03:01N 35°22' E 139°44'611.3
2017-Jun-24 02:30N 35°17' E 139°46'610.8
2017-Jun-24 01:57N 35°11' E 139°46'4 0.1
2017-Jun-22 09:29N 35°07' E 139°43'611.7
2017-Jun-22 09:00N 35°13' E 139°46'611.4
2017-Jun-22 08:30N 35°18' E 139°44'611.3
2017-Jun-22 08:00N 35°23' E 139°42'612.1
2017-Jun-22 07:30N 35°28' E 139°47'611.5
2017-Jun-22 07:00N 35°33' E 139°50'4 8.7
2017-Jun-22 06:30N 35°36' E 139°46'0 0.0
2017-Jun-22 05:55N 35°36' E 139°46'0 0.0
2017-Jun-22 05:28N 35°36' E 139°46'0 0.0
2017-Jun-22 04:58N 35°36' E 139°46'0 0.0
2017-Jun-22 04:16N 35°36' E 139°46'0 0.0
2017-Jun-22 03:58N 35°36' E 139°46'0 0.0
2017-Jun-22 03:28N 35°36' E 139°46'0 0.0
2017-Jun-22 02:55N 35°36' E 139°46'0 0.0
2017-Jun-22 02:20N 35°36' E 139°46'0 0.9
2017-Jun-22 01:56N 35°36' E 139°46'0 0.0
2017-Jun-22 01:29N 35°36' E 139°46'0 0.0
2017-Jun-22 00:59N 35°36' E 139°46'0 0.0
2017-Jun-22 00:29N 35°36' E 139°46'0 0.0
2017-Jun-21 23:56N 35°36' E 139°46'0 0.1
2017-Jun-21 23:30N 35°36' E 139°46'4 8.2
2017-Jun-21 23:00N 35°34' E 139°50'3 2.5
2017-Jun-21 21:58N 35°33' E 139°53'0 0.0
2017-Jun-21 21:28N 35°33' E 139°53'0 0.0
2017-Jun-21 20:55N 35°33' E 139°53'0 0.0
2017-Jun-21 20:25N 35°33' E 139°53'0 0.0
2017-Jun-21 19:58N 35°33' E 139°53'0 0.1
2017-Jun-21 19:25N 35°33' E 139°53'0 0.1
2017-Jun-21 18:13N 35°33' E 139°53'0 0.0
2017-Jun-21 17:59N 35°33' E 139°53'0 0.0
2017-Jun-21 17:30N 35°33' E 139°53'0 0.0
2017-Jun-21 17:00N 35°33' E 139°53'0 0.0
2017-Jun-21 16:30N 35°33' E 139°53'0 0.0
2017-Jun-21 16:01N 35°33' E 139°53'0 0.0
2017-Jun-21 15:30N 35°33' E 139°53'0 0.0
2017-Jun-21 14:57N 35°33' E 139°53'0 0.0
2017-Jun-21 14:31N 35°33' E 139°53'0 0.0
2017-Jun-21 13:31N 35°33' E 139°53'0 0.0
2017-Jun-21 13:00N 35°33' E 139°53'0 0.0
2017-Jun-21 12:29N 35°33' E 139°53'0 0.0
2017-Jun-21 12:00N 35°33' E 139°53'0 0.0
2017-Jun-21 11:26N 35°33' E 139°53'0 0.0
2017-Jun-21 10:59N 35°33' E 139°53'0 0.0
2017-Jun-21 10:30N 35°33' E 139°53'0 0.0
2017-Jun-21 09:58N 35°33' E 139°53'0 0.0
2017-Jun-21 09:30N 35°33' E 139°53'0 0.0
2017-Jun-21 09:01N 35°33' E 139°53'0 0.1
2017-Jun-21 08:30N 35°33' E 139°53'0 0.0
2017-Jun-21 08:00N 35°33' E 139°53'0 0.0
2017-Jun-21 07:30N 35°33' E 139°53'0 0.1
2017-Jun-21 07:00N 35°33' E 139°53'5 9.5
2017-Jun-21 06:30N 35°29' E 139°51'612.8
2017-Jun-21 06:00N 35°24' E 139°46'612.4
2017-Jun-21 05:30N 35°18' E 139°45'1112.4
2017-Jun-21 04:36N 35°07' E 139°46'112.7
2017-Jun-21 04:29N 35°06' E 139°44'2 0.1
2017-Jun-20 10:55N 35°07' E 139°42'712.0
2017-Jun-20 10:19N 35°13' E 139°46'311.4
2017-Jun-20 10:01N 35°16' E 139°45'611.5
2017-Jun-20 09:31N 35°21' E 139°42'510.9
2017-Jun-20 09:01N 35°26' E 139°45'611.2
2017-Jun-20 08:31N 35°31' E 139°49'5 9.1
2017-Jun-20 08:01N 35°35' E 139°48'2 3.4
2017-Jun-20 07:27N 35°36' E 139°46'0 0.0
2017-Jun-20 07:00N 35°36' E 139°46'0 0.0
2017-Jun-20 05:57N 35°36' E 139°46'2 5.4
2017-Jun-20 05:30N 35°35' E 139°48'510.1
2017-Jun-20 05:00N 35°31' E 139°52'611.7
2017-Jun-20 04:30N 35°26' E 139°48'612.0
2017-Jun-20 04:00N 35°21' E 139°45'611.2
2017-Jun-20 03:31N 35°15' E 139°47'  

Dump ship's entire track history